Time;durP1;ratioP1;P1;durP2;ratioP2;P2;SDS_P1;SDS_P2;PMS_P1;PMS_P2;Temp;Humidity;BMP_temperature;BMP_pressure;BME280_temperature;BME280_humidity;BME280_pressure;Samples;Min_cycle;Max_cycle;Signal;HPM_P1;HPM_P2
2023/07/12 00:00:30;;;;;;;14.43;10.77;;;;;;;;;;5054015;28;20672;-68
2023/07/12 00:02:58;;;;;;;10.60;9.50;;;;;;;;;;5049320;28;20591;-67
2023/07/12 00:05:29;;;;;;;10.10;9.10;;;;;;;;;;5050339;28;20611;-69
2023/07/12 00:07:58;;;;;;;10.43;8.93;;;;;;;;;;5050474;28;20593;-67
2023/07/12 00:10:28;;;;;;;10.57;9.60;;;;;;;;;;5050654;28;20651;-68
2023/07/12 00:12:56;;;;;;;10.83;9.80;;;;;;;;;;5049772;28;20632;-69
2023/07/12 00:15:25;;;;;;;9.60;8.80;;;;;;;;;;5050537;28;20623;-68
2023/07/12 00:17:56;;;;;;;12.17;8.83;;;;;;;;;;5050312;28;20615;-67
2023/07/12 00:20:29;;;;;;;13.00;9.03;;;;;;;;;;5050251;28;21121;-68
2023/07/12 00:22:57;;;;;;;11.33;10.23;;;;;;;;;;5059464;28;20980;-69
2023/07/12 00:25:27;;;;;;;14.33;9.30;;;;;;;;;;5070126;28;20723;-68
2023/07/12 00:27:55;;;;;;;10.30;9.20;;;;;;;;;;5070231;28;20980;-69
2023/07/12 00:30:25;;;;;;;12.70;9.70;;;;;;;;;;5070669;28;20626;-68
2023/07/12 00:32:54;;;;;;;10.73;9.70;;;;;;;;;;5073369;28;21182;-68
2023/07/12 00:35:24;;;;;;;9.33;8.40;;;;;;;;;;5074124;28;20614;-69
2023/07/12 00:37:54;;;;;;;9.37;8.53;;;;;;;;;;5073603;28;20609;-68
2023/07/12 00:40:43;;;;;;;10.40;8.90;;;;;;;;;;5073204;28;21195;-68
2023/07/12 00:43:20;;;;;;;10.20;9.07;;;;;;;;;;5073253;28;20598;-68
2023/07/12 00:45:50;;;;;;;10.30;8.83;;;;;;;;;;5073539;28;20602;-69
2023/07/12 00:48:19;;;;;;;10.00;8.93;;;;;;;;;;5072997;28;20602;-68
2023/07/12 00:50:49;;;;;;;9.57;8.77;;;;;;;;;;5073292;28;20693;-68
2023/07/12 00:53:18;;;;;;;11.30;9.50;;;;;;;;;;5072226;28;20617;-68
2023/07/12 00:55:57;;;;;;;9.10;8.20;;;;;;;;;;5065122;28;20621;-69
2023/07/12 00:58:27;;;;;;;10.63;9.73;;;;;;;;;;5052035;28;21055;-69
2023/07/12 01:00:56;;;;;;;17.70;10.07;;;;;;;;;;5052962;28;20711;-69
2023/07/12 01:03:24;;;;;;;12.13;10.57;;;;;;;;;;5051579;28;20990;-67
2023/07/12 01:05:54;;;;;;;12.17;9.60;;;;;;;;;;5060467;28;20628;-68
2023/07/12 01:08:22;;;;;;;13.73;10.10;;;;;;;;;;5073089;28;21039;-68
2023/07/12 01:10:52;;;;;;;10.57;9.40;;;;;;;;;;5072613;28;21225;-69
2023/07/12 01:13:22;;;;;;;11.10;9.37;;;;;;;;;;5073081;28;20984;-69
2023/07/12 01:15:51;;;;;;;13.70;10.10;;;;;;;;;;5072206;28;20618;-69
2023/07/12 01:18:19;;;;;;;11.23;10.13;;;;;;;;;;5072727;28;20631;-68
2023/07/12 01:20:47;;;;;;;10.97;9.73;;;;;;;;;;5062680;28;20620;-69
2023/07/12 01:23:17;;;;;;;12.90;9.10;;;;;;;;;;5072840;28;20981;-68
2023/07/12 01:25:47;;;;;;;10.43;8.93;;;;;;;;;;5072454;28;21334;-69
2023/07/12 01:28:15;;;;;;;10.07;8.77;;;;;;;;;;5073016;28;20610;-69
2023/07/12 01:30:43;;;;;;;11.00;9.37;;;;;;;;;;5071355;28;20629;-69
2023/07/12 01:33:11;;;;;;;14.93;8.67;;;;;;;;;;5072429;28;20618;-69
2023/07/12 01:35:41;;;;;;;8.90;8.20;;;;;;;;;;5072992;28;20623;-69
2023/07/12 01:38:10;;;;;;;11.03;9.80;;;;;;;;;;5072011;28;20622;-69
2023/07/12 01:40:39;;;;;;;12.30;8.73;;;;;;;;;;5072181;28;20622;-69
2023/07/12 01:43:07;;;;;;;10.43;8.40;;;;;;;;;;5070225;28;20838;-69
2023/07/12 01:45:36;;;;;;;9.37;8.50;;;;;;;;;;5070750;28;20669;-70
2023/07/12 01:48:04;;;;;;;9.17;8.27;;;;;;;;;;5071753;28;21165;-69
2023/07/12 01:50:33;;;;;;;8.90;8.00;;;;;;;;;;5056528;28;20633;-67
2023/07/12 01:53:01;;;;;;;10.00;8.70;;;;;;;;;;5072310;28;20641;-68
2023/07/12 01:55:29;;;;;;;11.80;8.50;;;;;;;;;;5072594;28;20602;-67
2023/07/12 01:57:59;;;;;;;8.93;8.07;;;;;;;;;;5071628;28;20932;-70
2023/07/12 02:00:28;;;;;;;9.20;7.47;;;;;;;;;;5065475;28;20618;-69
2023/07/12 02:02:56;;;;;;;9.67;8.60;;;;;;;;;;5050873;28;20640;-68
2023/07/12 02:05:24;;;;;;;11.63;8.50;;;;;;;;;;5051192;28;21228;-67
2023/07/12 02:07:56;;;;;;;12.27;8.90;;;;;;;;;;5051835;28;20627;-68
2023/07/12 02:10:24;;;;;;;9.87;8.77;;;;;;;;;;5064967;28;20675;-68
2023/07/12 02:12:55;;;;;;;9.43;8.37;;;;;;;;;;5050529;28;21012;-68
2023/07/12 02:15:25;;;;;;;11.00;9.60;;;;;;;;;;5052263;28;20607;-68
2023/07/12 02:17:54;;;;;;;12.63;9.30;;;;;;;;;;5051592;28;20625;-68
2023/07/12 02:20:22;;;;;;;10.40;8.33;;;;;;;;;;5050839;28;20634;-68
2023/07/12 02:22:51;;;;;;;12.03;9.23;;;;;;;;;;5051384;28;20626;-69
2023/07/12 02:25:20;;;;;;;9.60;8.67;;;;;;;;;;5051335;28;20682;-68
2023/07/12 02:27:49;;;;;;;10.70;9.60;;;;;;;;;;5067405;28;20628;-68
2023/07/12 02:30:18;;;;;;;10.70;8.23;;;;;;;;;;5070963;28;20962;-68
2023/07/12 02:32:47;;;;;;;12.13;9.87;;;;;;;;;;5071032;28;20632;-67
2023/07/12 02:35:17;;;;;;;9.03;8.30;;;;;;;;;;5069532;28;20629;-67
2023/07/12 02:37:45;;;;;;;9.50;8.30;;;;;;;;;;5071517;28;20640;-67
2023/07/12 02:40:14;;;;;;;15.43;9.60;;;;;;;;;;5071110;28;20644;-68
2023/07/12 02:42:42;;;;;;;10.33;8.70;;;;;;;;;;5071261;28;21217;-68
2023/07/12 02:45:11;;;;;;;10.30;9.30;;;;;;;;;;5070203;28;20662;-68
2023/07/12 02:47:39;;;;;;;14.33;9.60;;;;;;;;;;5070667;28;20619;-66
2023/07/12 02:50:09;;;;;;;9.90;8.90;;;;;;;;;;5070326;28;20622;-68
2023/07/12 02:52:37;;;;;;;12.60;9.23;;;;;;;;;;5070686;28;20983;-68
2023/07/12 02:55:06;;;;;;;11.30;8.80;;;;;;;;;;5069646;28;20630;-67
2023/07/12 02:57:34;;;;;;;10.13;9.17;;;;;;;;;;5071083;28;20636;-68
2023/07/12 03:00:02;;;;;;;11.17;8.53;;;;;;;;;;5070810;28;20594;-67
2023/07/12 03:02:30;;;;;;;14.50;9.10;;;;;;;;;;5069692;28;20622;-68
2023/07/12 03:04:59;;;;;;;11.50;9.10;;;;;;;;;;5068510;28;20831;-67
2023/07/12 03:07:28;;;;;;;12.17;8.10;;;;;;;;;;5069236;28;20610;-68
2023/07/12 03:09:57;;;;;;;9.13;8.23;;;;;;;;;;5070011;28;21209;-68
2023/07/12 03:12:25;;;;;;;8.50;6.63;;;;;;;;;;5066515;28;20626;-69
2023/07/12 03:14:54;;;;;;;10.77;7.77;;;;;;;;;;5070094;28;20655;-67
2023/07/12 03:17:22;;;;;;;7.37;6.40;;;;;;;;;;5070866;28;20615;-67
2023/07/12 03:19:50;;;;;;;8.03;6.70;;;;;;;;;;5070755;28;20629;-68
2023/07/12 03:22:18;;;;;;;7.80;6.80;;;;;;;;;;5070718;28;21248;-68
2023/07/12 03:24:48;;;;;;;13.63;6.50;;;;;;;;;;5070193;28;20652;-68
2023/07/12 03:27:16;;;;;;;7.83;6.40;;;;;;;;;;5069224;28;20657;-66
2023/07/12 03:29:44;;;;;;;7.23;6.53;;;;;;;;;;5069980;28;20638;-66
2023/07/12 03:32:12;;;;;;;10.80;7.07;;;;;;;;;;5070439;28;21197;-67
2023/07/12 03:34:41;;;;;;;10.03;7.07;;;;;;;;;;5070491;28;20629;-68
2023/07/12 03:37:09;;;;;;;8.27;6.70;;;;;;;;;;5070802;28;20618;-68
2023/07/12 03:39:37;;;;;;;9.60;6.10;;;;;;;;;;5070705;28;20634;-68
2023/07/12 03:42:07;;;;;;;9.43;6.70;;;;;;;;;;5070277;28;20622;-68
2023/07/12 03:44:35;;;;;;;9.60;5.97;;;;;;;;;;5070558;28;20633;-68
2023/07/12 03:47:04;;;;;;;12.57;7.30;;;;;;;;;;5070195;28;20670;-66
2023/07/12 03:49:32;;;;;;;12.07;8.33;;;;;;;;;;5069368;28;20630;-69
2023/07/12 03:52:00;;;;;;;8.73;7.13;;;;;;;;;;5070262;28;21037;-68
2023/07/12 03:54:28;;;;;;;15.90;6.77;;;;;;;;;;5070036;28;21184;-68
2023/07/12 03:56:57;;;;;;;9.60;7.40;;;;;;;;;;5070174;28;21172;-68
2023/07/12 03:59:26;;;;;;;6.70;5.80;;;;;;;;;;5069973;28;20719;-68
2023/07/12 04:01:54;;;;;;;9.10;7.87;;;;;;;;;;5064618;28;20636;-67
2023/07/12 04:04:22;;;;;;;8.37;6.90;;;;;;;;;;5070682;28;20622;-68
2023/07/12 04:06:50;;;;;;;9.47;7.03;;;;;;;;;;5073740;28;20714;-68
2023/07/12 04:09:19;;;;;;;8.17;6.87;;;;;;;;;;5074042;28;20621;-68
2023/07/12 04:11:47;;;;;;;8.37;7.20;;;;;;;;;;5063973;28;20688;-68
2023/07/12 04:14:15;;;;;;;12.27;6.80;;;;;;;;;;5073831;28;20981;-68
2023/07/12 04:16:47;;;;;;;16.43;6.97;;;;;;;;;;5074149;28;20953;-68
2023/07/12 04:19:18;;;;;;;13.97;8.20;;;;;;;;;;5073734;28;20647;-68
2023/07/12 04:21:46;;;;;;;7.67;6.83;;;;;;;;;;5073846;28;20622;-68
2023/07/12 04:24:15;;;;;;;7.50;6.70;;;;;;;;;;5074412;28;20614;-68
2023/07/12 04:26:44;;;;;;;10.70;6.70;;;;;;;;;;5073622;28;20654;-68
2023/07/12 04:29:12;;;;;;;13.50;7.13;;;;;;;;;;5073777;28;20625;-68
2023/07/12 04:31:41;;;;;;;13.80;7.10;;;;;;;;;;5073119;28;20622;-68
2023/07/12 04:34:10;;;;;;;14.83;7.03;;;;;;;;;;5072239;28;20636;-68
2023/07/12 04:36:38;;;;;;;12.47;6.90;;;;;;;;;;5072419;28;20618;-68
2023/07/12 04:39:08;;;;;;;9.67;6.40;;;;;;;;;;5072565;28;20683;-68
2023/07/12 04:41:36;;;;;;;9.67;6.83;;;;;;;;;;5073262;28;20640;-68
2023/07/12 04:44:04;;;;;;;15.60;7.37;;;;;;;;;;5072636;28;21200;-68
2023/07/12 04:46:32;;;;;;;12.20;7.27;;;;;;;;;;5073014;28;20661;-68
2023/07/12 04:49:03;;;;;;;7.90;7.13;;;;;;;;;;5072498;28;20606;-68
2023/07/12 04:51:32;;;;;;;11.60;6.80;;;;;;;;;;5073419;28;20630;-68
2023/07/12 04:54:00;;;;;;;7.67;6.03;;;;;;;;;;5073259;28;20622;-68
2023/07/12 04:56:28;;;;;;;12.67;7.43;;;;;;;;;;5061930;28;20976;-68
2023/07/12 04:58:57;;;;;;;8.13;7.33;;;;;;;;;;5055783;28;20657;-68
2023/07/12 05:01:25;;;;;;;7.40;6.40;;;;;;;;;;5071607;28;20626;-67
2023/07/12 05:03:53;;;;;;;10.03;7.23;;;;;;;;;;5070425;28;20626;-68
2023/07/12 05:06:21;;;;;;;12.23;6.97;;;;;;;;;;5071717;28;20668;-68
2023/07/12 05:08:51;;;;;;;8.00;6.20;;;;;;;;;;5072761;28;20617;-68
2023/07/12 05:11:19;;;;;;;8.37;6.60;;;;;;;;;;5062884;28;21003;-68
2023/07/12 05:13:48;;;;;;;7.50;6.67;;;;;;;;;;5072683;28;20624;-68
2023/07/12 05:16:16;;;;;;;14.13;6.73;;;;;;;;;;5070421;28;20969;-68
2023/07/12 05:18:44;;;;;;;8.97;6.30;;;;;;;;;;5070017;28;20628;-66
2023/07/12 05:21:12;;;;;;;8.60;6.77;;;;;;;;;;5071781;28;20630;-68
2023/07/12 05:23:41;;;;;;;8.47;7.57;;;;;;;;;;5070971;28;20938;-69
2023/07/12 05:26:11;;;;;;;8.03;6.57;;;;;;;;;;5070870;28;20661;-69
2023/07/12 05:28:39;;;;;;;10.73;7.47;;;;;;;;;;5070968;28;20992;-69
2023/07/12 05:31:08;;;;;;;8.30;6.90;;;;;;;;;;5071047;28;21206;-69
2023/07/12 05:33:36;;;;;;;15.67;8.17;;;;;;;;;;5071601;28;20644;-69
2023/07/12 05:36:06;;;;;;;11.60;7.53;;;;;;;;;;5072028;28;20614;-69
2023/07/12 05:38:34;;;;;;;8.87;7.10;;;;;;;;;;5072617;28;21004;-69
2023/07/12 05:41:02;;;;;;;10.50;6.67;;;;;;;;;;5071962;28;20614;-68
2023/07/12 05:43:33;;;;;;;8.23;7.20;;;;;;;;;;5071698;28;20622;-68
2023/07/12 05:46:03;;;;;;;10.00;6.60;;;;;;;;;;5063944;28;20720;-68
2023/07/12 05:48:31;;;;;;;8.43;5.75;;;;;;;;;;5049844;28;21089;-68
2023/07/12 05:50:59;;;;;;;9.90;6.90;;;;;;;;;;5061390;28;20647;-68
2023/07/12 05:53:28;;;;;;;7.90;6.73;;;;;;;;;;5070584;28;20633;-66
2023/07/12 05:55:56;;;;;;;13.73;7.43;;;;;;;;;;5071307;28;20624;-66
2023/07/12 05:58:28;;;;;;;10.80;6.40;;;;;;;;;;5071672;28;20668;-66
2023/07/12 06:00:58;;;;;;;7.73;6.30;;;;;;;;;;5070440;28;20614;-66
2023/07/12 06:03:26;;;;;;;10.50;6.80;;;;;;;;;;5059673;28;21224;-66
2023/07/12 06:05:54;;;;;;;10.80;6.73;;;;;;;;;;5069782;28;20964;-66
2023/07/12 06:08:22;;;;;;;9.40;6.97;;;;;;;;;;5068765;28;20628;-67
2023/07/12 06:10:53;;;;;;;10.73;6.67;;;;;;;;;;5068487;28;20664;-65
2023/07/12 06:13:21;;;;;;;9.77;6.53;;;;;;;;;;5051955;28;20610;-66
2023/07/12 06:15:50;;;;;;;7.27;6.10;;;;;;;;;;5069719;28;20663;-66
2023/07/12 06:18:20;;;;;;;7.10;6.40;;;;;;;;;;5068483;28;20667;-66
2023/07/12 06:20:48;;;;;;;8.93;6.43;;;;;;;;;;5069993;28;20610;-66
2023/07/12 06:23:17;;;;;;;19.83;7.27;;;;;;;;;;5070044;28;20610;-66
2023/07/12 06:25:45;;;;;;;12.20;7.20;;;;;;;;;;5072059;28;20619;-66
2023/07/12 06:28:13;;;;;;;15.07;6.63;;;;;;;;;;5070088;28;20661;-66
2023/07/12 06:30:41;;;;;;;9.87;7.60;;;;;;;;;;5071639;28;20655;-65
2023/07/12 06:33:09;;;;;;;14.60;7.03;;;;;;;;;;5071233;28;21213;-66
2023/07/12 06:35:40;;;;;;;9.57;7.87;;;;;;;;;;5071670;28;20606;-65
2023/07/12 06:38:08;;;;;;;9.00;6.30;;;;;;;;;;5070330;28;20940;-66
2023/07/12 06:40:37;;;;;;;9.90;6.20;;;;;;;;;;5071312;28;20618;-66
2023/07/12 06:43:05;;;;;;;15.77;7.00;;;;;;;;;;5071532;28;20611;-66
2023/07/12 06:45:33;;;;;;;13.00;5.73;;;;;;;;;;5070676;28;20632;-65
2023/07/12 06:48:01;;;;;;;11.33;6.80;;;;;;;;;;5071225;28;20694;-65
2023/07/12 06:50:29;;;;;;;13.10;6.10;;;;;;;;;;5071395;28;20614;-65
2023/07/12 06:52:59;;;;;;;6.63;5.90;;;;;;;;;;5072206;28;20614;-65
2023/07/12 06:55:27;;;;;;;8.03;5.50;;;;;;;;;;5071237;28;20671;-65
2023/07/12 06:57:55;;;;;;;9.03;6.40;;;;;;;;;;5070902;28;20638;-66
2023/07/12 07:00:23;;;;;;;5.93;5.43;;;;;;;;;;5069999;28;20684;-65
2023/07/12 07:02:51;;;;;;;7.00;5.73;;;;;;;;;;5069365;28;20624;-66
2023/07/12 07:05:20;;;;;;;8.90;6.30;;;;;;;;;;5070065;28;20624;-66
2023/07/12 07:07:48;;;;;;;17.73;6.77;;;;;;;;;;5071768;28;20662;-66
2023/07/12 07:10:19;;;;;;;7.03;6.23;;;;;;;;;;5070549;28;20986;-66
2023/07/12 07:12:47;;;;;;;9.23;5.87;;;;;;;;;;5072347;28;20582;-66
2023/07/12 07:15:15;;;;;;;6.70;5.90;;;;;;;;;;5070996;28;20975;-67
2023/07/12 07:17:43;;;;;;;12.17;5.67;;;;;;;;;;5070596;28;20643;-66
2023/07/12 07:20:13;;;;;;;11.77;5.30;;;;;;;;;;5070567;28;20620;-66
2023/07/12 07:22:41;;;;;;;7.23;5.20;;;;;;;;;;5071797;28;20614;-63
2023/07/12 07:25:09;;;;;;;6.17;4.67;;;;;;;;;;5070270;28;20602;-66
2023/07/12 07:27:39;;;;;;;6.43;5.00;;;;;;;;;;5070766;28;21216;-67
2023/07/12 07:30:07;;;;;;;8.20;4.90;;;;;;;;;;5069383;28;20696;-66
2023/07/12 07:32:36;;;;;;;8.00;4.93;;;;;;;;;;5071117;28;20630;-67
2023/07/12 07:35:04;;;;;;;5.90;5.30;;;;;;;;;;5069401;28;20617;-67
2023/07/12 07:37:33;;;;;;;6.93;5.00;;;;;;;;;;5063133;28;20627;-66
2023/07/12 07:40:01;;;;;;;12.57;4.33;;;;;;;;;;5066427;28;20618;-67
2023/07/12 07:42:29;;;;;;;4.90;4.50;;;;;;;;;;5070781;28;20633;-67
2023/07/12 07:44:59;;;;;;;7.90;5.17;;;;;;;;;;5053125;28;20668;-68
2023/07/12 07:47:27;;;;;;;13.13;5.10;;;;;;;;;;5054163;28;20661;-68
2023/07/12 07:49:55;;;;;;;10.60;5.50;;;;;;;;;;5053123;28;20619;-68
2023/07/12 07:52:23;;;;;;;5.10;4.60;;;;;;;;;;5053972;28;21171;-68
2023/07/12 07:54:52;;;;;;;8.00;4.97;;;;;;;;;;5057466;28;21210;-68
2023/07/12 07:57:20;;;;;;;8.13;4.60;;;;;;;;;;5072984;28;20622;-68
2023/07/12 07:59:49;;;;;;;5.00;4.50;;;;;;;;;;5073839;28;20616;-68
2023/07/12 08:02:18;;;;;;;5.03;4.30;;;;;;;;;;5071312;28;20618;-68
2023/07/12 08:04:46;;;;;;;8.07;4.83;;;;;;;;;;5072520;28;20614;-68
2023/07/12 08:07:15;;;;;;;6.50;4.77;;;;;;;;;;5073217;28;21269;-67
2023/07/12 08:09:43;;;;;;;5.40;3.80;;;;;;;;;;5073627;28;20666;-67
2023/07/12 08:12:11;;;;;;;4.87;3.97;;;;;;;;;;5073166;28;20696;-67
2023/07/12 08:14:39;;;;;;;4.33;3.93;;;;;;;;;;5074103;28;20606;-68
2023/07/12 08:17:07;;;;;;;5.63;4.57;;;;;;;;;;5072472;28;20628;-68
2023/07/12 08:19:37;;;;;;;5.17;4.67;;;;;;;;;;5073483;28;21176;-67
2023/07/12 08:22:05;;;;;;;19.50;5.00;;;;;;;;;;5071227;28;20617;-67
2023/07/12 08:24:36;;;;;;;7.70;4.10;;;;;;;;;;5073337;28;21135;-67
2023/07/12 08:27:05;;;;;;;7.50;4.50;;;;;;;;;;5072777;28;20644;-67
2023/07/12 08:29:33;;;;;;;4.50;3.90;;;;;;;;;;5073325;28;20606;-67
2023/07/12 08:32:01;;;;;;;9.27;4.50;;;;;;;;;;5062739;28;21234;-67
2023/07/12 08:34:32;;;;;;;9.37;5.50;;;;;;;;;;5053293;28;20611;-67
2023/07/12 08:37:01;;;;;;;4.80;4.30;;;;;;;;;;5052857;28;20595;-67
2023/07/12 08:39:29;;;;;;;5.57;4.30;;;;;;;;;;5051868;28;20995;-68
2023/07/12 08:41:58;;;;;;;7.13;4.90;;;;;;;;;;5052713;28;20663;-68
2023/07/12 08:44:27;;;;;;;6.00;4.30;;;;;;;;;;5053815;28;20618;-68
2023/07/12 08:46:57;;;;;;;4.40;4.00;;;;;;;;;;5053800;28;20656;-68
2023/07/12 08:49:26;;;;;;;7.80;4.17;;;;;;;;;;5072981;28;20637;-68
2023/07/12 08:51:57;;;;;;;4.50;4.20;;;;;;;;;;5071244;28;20602;-68
2023/07/12 08:54:33;;;;;;;5.00;4.50;;;;;;;;;;5073260;28;20582;-68
2023/07/12 08:57:18;;;;;;;4.57;4.27;;;;;;;;;;5073329;28;20582;-68
2023/07/12 09:00:03;;;;;;;4.90;4.30;;;;;;;;;;5072891;28;20584;-67
2023/07/12 09:02:33;;;;;;;4.03;3.23;;;;;;;;;;5052331;28;20627;-67
2023/07/12 09:05:10;;;;;;;4.80;3.57;;;;;;;;;;5052465;28;20625;-67
2023/07/12 09:07:39;;;;;;;11.23;4.27;;;;;;;;;;5051705;28;20634;-67
2023/07/12 09:10:10;;;;;;;7.77;4.07;;;;;;;;;;5052988;28;20645;-68
2023/07/12 09:12:38;;;;;;;6.07;4.50;;;;;;;;;;5052367;28;20623;-69
2023/07/12 09:15:08;;;;;;;4.70;4.10;;;;;;;;;;5051645;28;20621;-68
2023/07/12 09:17:42;;;;;;;3.70;3.40;;;;;;;;;;5052786;28;20629;-68
2023/07/12 09:20:23;;;;;;;3.43;3.13;;;;;;;;;;5053675;28;20583;-69
2023/07/12 09:22:51;;;;;;;3.57;3.30;;;;;;;;;;5051821;28;21106;-68
2023/07/12 09:25:22;;;;;;;5.30;3.53;;;;;;;;;;5052630;28;20970;-68
2023/07/12 09:27:51;;;;;;;5.43;3.67;;;;;;;;;;5052209;28;20630;-70
2023/07/12 09:30:21;;;;;;;4.83;3.77;;;;;;;;;;5052963;28;20607;-70
2023/07/12 09:32:49;;;;;;;7.00;4.20;;;;;;;;;;5050909;28;20627;-70
2023/07/12 09:35:25;;;;;;;9.10;4.33;;;;;;;;;;5052894;28;20614;-69
2023/07/12 09:37:57;;;;;;;4.07;3.77;;;;;;;;;;5052526;28;20582;-69
2023/07/12 09:40:30;;;;;;;4.67;3.93;;;;;;;;;;5052113;28;21194;-69
2023/07/12 09:42:58;;;;;;;3.77;3.57;;;;;;;;;;5052542;28;20575;-68
2023/07/12 09:45:30;;;;;;;5.23;3.93;;;;;;;;;;5055960;28;20629;-68
2023/07/12 09:48:03;;;;;;;10.03;3.90;;;;;;;;;;5069356;28;20641;-68
2023/07/12 09:50:35;;;;;;;3.97;3.70;;;;;;;;;;5072137;28;20606;-68
2023/07/12 09:53:05;;;;;;;8.33;4.00;;;;;;;;;;5070896;28;21217;-68
2023/07/12 09:55:40;;;;;;;15.27;4.10;;;;;;;;;;5071311;28;20626;-68
2023/07/12 09:58:13;;;;;;;4.13;3.83;;;;;;;;;;5071065;28;20646;-69
2023/07/12 10:00:47;;;;;;;4.70;4.30;;;;;;;;;;5067636;28;20599;-68
2023/07/12 10:03:17;;;;;;;4.20;3.90;;;;;;;;;;5050062;28;20591;-67
2023/07/12 10:05:48;;;;;;;3.80;3.50;;;;;;;;;;5065395;28;20606;-67
2023/07/12 10:08:19;;;;;;;5.30;3.50;;;;;;;;;;5071577;28;20660;-67
2023/07/12 10:10:53;;;;;;;4.23;3.93;;;;;;;;;;5068766;28;20665;-67
2023/07/12 10:13:28;;;;;;;5.90;4.00;;;;;;;;;;5068750;28;20607;-67
2023/07/12 10:15:57;;;;;;;4.60;4.00;;;;;;;;;;5071251;28;20605;-68
2023/07/12 10:18:27;;;;;;;3.40;3.10;;;;;;;;;;5069990;28;20611;-67
2023/07/12 10:20:56;;;;;;;4.40;4.00;;;;;;;;;;5071321;28;20643;-68
2023/07/12 10:23:26;;;;;;;7.23;4.03;;;;;;;;;;5071618;28;21175;-68
2023/07/12 10:25:58;;;;;;;4.00;3.57;;;;;;;;;;5071223;28;20580;-68
2023/07/12 10:28:28;;;;;;;4.47;3.80;;;;;;;;;;5071232;28;20652;-68
2023/07/12 10:30:58;;;;;;;5.30;3.80;;;;;;;;;;5071482;28;20652;-68
2023/07/12 10:33:28;;;;;;;5.20;4.17;;;;;;;;;;5071053;28;20598;-68
2023/07/12 10:35:57;;;;;;;5.60;3.37;;;;;;;;;;5070920;28;20589;-67
2023/07/12 10:38:25;;;;;;;4.10;3.70;;;;;;;;;;5054414;28;20623;-67
2023/07/12 10:40:55;;;;;;;5.07;3.63;;;;;;;;;;5050244;28;20611;-67
2023/07/12 10:43:28;;;;;;;4.67;4.23;;;;;;;;;;5050869;28;20969;-68
2023/07/12 10:46:00;;;;;;;3.97;3.63;;;;;;;;;;5051122;28;20583;-68
2023/07/12 10:48:30;;;;;;;3.70;3.50;;;;;;;;;;5050100;28;20638;-67
2023/07/12 10:51:13;;;;;;;3.97;3.67;;;;;;;;;;5051278;28;20615;-68
2023/07/12 10:53:49;;;;;;;3.80;3.60;;;;;;;;;;5050914;28;20595;-68
2023/07/12 10:56:19;;;;;;;7.50;3.70;;;;;;;;;;5051689;28;20581;-68
2023/07/12 10:58:50;;;;;;;4.23;3.73;;;;;;;;;;5049787;28;20661;-67
2023/07/12 11:01:38;;;;;;;10.20;4.57;;;;;;;;;;5051819;28;20583;-68
2023/07/12 11:04:06;;;;;;;4.60;4.10;;;;;;;;;;5068535;28;20595;-68
2023/07/12 11:06:35;;;;;;;4.07;3.70;;;;;;;;;;5066184;28;20623;-68
2023/07/12 11:09:04;;;;;;;4.47;4.10;;;;;;;;;;5067900;28;20666;-68
2023/07/12 11:11:36;;;;;;;6.30;4.00;;;;;;;;;;5069951;28;20657;-68
2023/07/12 11:14:17;;;;;;;4.90;4.20;;;;;;;;;;5067126;28;20609;-67
2023/07/12 11:16:51;;;;;;;3.70;3.60;;;;;;;;;;5070121;28;20938;-67
2023/07/12 11:19:35;;;;;;;4.27;4.00;;;;;;;;;;5067576;28;20601;-68
2023/07/12 11:22:05;;;;;;;6.57;4.10;;;;;;;;;;5069225;28;21293;-68
2023/07/12 11:24:38;;;;;;;5.30;4.20;;;;;;;;;;5066817;28;20996;-68
2023/07/12 11:27:10;;;;;;;4.40;4.00;;;;;;;;;;5069386;28;20605;-68
2023/07/12 11:29:47;;;;;;;4.00;3.80;;;;;;;;;;5066944;28;20653;-68
2023/07/12 11:32:20;;;;;;;5.23;4.53;;;;;;;;;;5071229;28;20586;-67
2023/07/12 11:34:49;;;;;;;4.10;3.80;;;;;;;;;;5068690;28;20679;-68
2023/07/12 11:37:18;;;;;;;4.30;4.10;;;;;;;;;;5071111;28;21217;-68
2023/07/12 11:39:47;;;;;;;4.57;4.30;;;;;;;;;;5069531;28;20602;-68
2023/07/12 11:42:24;;;;;;;4.20;4.00;;;;;;;;;;5069484;28;21191;-68
2023/07/12 11:45:04;;;;;;;4.20;4.00;;;;;;;;;;5067833;28;20978;-68
2023/07/12 11:47:33;;;;;;;4.33;4.13;;;;;;;;;;5071505;28;20623;-68
2023/07/12 11:50:03;;;;;;;6.03;4.00;;;;;;;;;;5068302;28;20652;-68
2023/07/12 11:52:34;;;;;;;5.47;4.10;;;;;;;;;;5070192;28;20999;-68
2023/07/12 11:55:05;;;;;;;4.50;4.30;;;;;;;;;;5069075;28;20614;-68
2023/07/12 11:57:40;;;;;;;4.50;4.30;;;;;;;;;;5070272;28;20618;-68
2023/07/12 12:00:14;;;;;;;11.37;4.63;;;;;;;;;;5067832;28;20600;-68
2023/07/12 12:02:43;;;;;;;5.73;4.53;;;;;;;;;;5068432;28;20612;-68
2023/07/12 12:05:16;;;;;;;5.27;4.80;;;;;;;;;;5069536;28;21179;-68
2023/07/12 12:07:45;;;;;;;4.43;4.13;;;;;;;;;;5069655;28;20634;-68
2023/07/12 12:10:20;;;;;;;5.10;4.70;;;;;;;;;;5067036;28;20670;-67
2023/07/12 12:12:49;;;;;;;5.83;4.80;;;;;;;;;;5068577;28;20601;-68
2023/07/12 12:15:22;;;;;;;4.87;4.50;;;;;;;;;;5068406;28;20630;-68
2023/07/12 12:17:51;;;;;;;5.00;4.70;;;;;;;;;;5069384;28;20602;-68
2023/07/12 12:20:20;;;;;;;5.17;4.97;;;;;;;;;;5069093;28;20640;-68
2023/07/12 12:22:51;;;;;;;5.30;5.00;;;;;;;;;;5069351;28;20622;-68
2023/07/12 12:25:21;;;;;;;5.13;4.77;;;;;;;;;;5068625;28;20602;-68
2023/07/12 12:27:49;;;;;;;5.80;5.37;;;;;;;;;;5071929;28;20618;-68
2023/07/12 12:30:19;;;;;;;5.47;5.03;;;;;;;;;;5072600;28;20666;-68
2023/07/12 12:32:58;;;;;;;5.03;4.73;;;;;;;;;;5072837;28;20614;-69
2023/07/12 12:35:26;;;;;;;5.67;5.30;;;;;;;;;;5071775;28;20649;-68
2023/07/12 12:37:57;;;;;;;6.33;5.63;;;;;;;;;;5068556;28;20642;-68
2023/07/12 12:40:26;;;;;;;5.60;5.20;;;;;;;;;;5073665;28;20586;-68
2023/07/12 12:42:58;;;;;;;5.87;5.03;;;;;;;;;;5073493;28;20606;-68
2023/07/12 12:45:28;;;;;;;4.70;4.50;;;;;;;;;;5073769;28;20914;-68
2023/07/12 12:47:58;;;;;;;5.47;5.17;;;;;;;;;;5073780;28;20590;-69
2023/07/12 12:50:27;;;;;;;8.23;5.30;;;;;;;;;;5072739;28;20658;-68
2023/07/12 12:53:00;;;;;;;6.20;5.40;;;;;;;;;;5064927;28;20630;-68
2023/07/12 12:55:28;;;;;;;6.07;5.67;;;;;;;;;;5071088;28;20951;-69
2023/07/12 12:57:56;;;;;;;6.00;5.60;;;;;;;;;;5061833;28;20658;-68
2023/07/12 13:00:25;;;;;;;5.60;5.20;;;;;;;;;;5068188;28;20618;-68
2023/07/12 13:02:54;;;;;;;5.27;4.97;;;;;;;;;;5066137;28;20638;-68
2023/07/12 13:05:23;;;;;;;5.80;5.40;;;;;;;;;;5064512;28;20636;-69
2023/07/12 13:07:53;;;;;;;5.70;5.30;;;;;;;;;;5068986;28;20626;-68
2023/07/12 13:10:22;;;;;;;6.23;5.17;;;;;;;;;;5071935;28;20699;-68
2023/07/12 13:12:51;;;;;;;5.43;5.10;;;;;;;;;;5073116;28;20621;-69
2023/07/12 13:15:20;;;;;;;6.07;5.60;;;;;;;;;;5065112;28;20672;-69
2023/07/12 13:17:49;;;;;;;5.80;5.43;;;;;;;;;;5057761;28;20632;-69
2023/07/12 13:20:19;;;;;;;5.60;5.03;;;;;;;;;;5072604;28;20618;-68
2023/07/12 13:22:48;;;;;;;5.73;5.33;;;;;;;;;;5067505;28;20640;-69
2023/07/12 13:25:17;;;;;;;6.33;5.83;;;;;;;;;;5064017;28;20681;-69
2023/07/12 13:27:49;;;;;;;6.07;5.67;;;;;;;;;;5072280;28;20636;-64
2023/07/12 13:30:18;;;;;;;6.00;5.43;;;;;;;;;;5072604;28;21222;-65
2023/07/12 13:32:46;;;;;;;5.90;5.50;;;;;;;;;;5071781;28;20998;-66
2023/07/12 13:35:17;;;;;;;5.87;5.30;;;;;;;;;;5071834;28;21004;-66
2023/07/12 13:37:45;;;;;;;7.30;5.37;;;;;;;;;;5070277;28;20669;-66
2023/07/12 13:40:16;;;;;;;19.07;5.60;;;;;;;;;;5073273;28;20622;-67
2023/07/12 13:42:46;;;;;;;10.53;5.10;;;;;;;;;;5051240;28;21020;-66
2023/07/12 13:45:15;;;;;;;4.90;4.70;;;;;;;;;;5052043;28;21195;-66
2023/07/12 13:47:44;;;;;;;5.03;4.60;;;;;;;;;;5053138;28;20613;-65
2023/07/12 13:50:14;;;;;;;4.93;4.37;;;;;;;;;;5053749;28;20715;-64
2023/07/12 13:52:43;;;;;;;5.20;4.87;;;;;;;;;;5053564;28;20586;-65
2023/07/12 13:55:14;;;;;;;5.30;4.90;;;;;;;;;;5053281;28;20619;-65
2023/07/12 13:57:44;;;;;;;5.90;4.63;;;;;;;;;;5052949;28;20649;-65
2023/07/12 14:00:15;;;;;;;4.60;4.30;;;;;;;;;;5053164;28;20618;-64
2023/07/12 14:02:44;;;;;;;5.07;4.70;;;;;;;;;;5051842;28;20580;-66
2023/07/12 14:05:13;;;;;;;4.83;4.53;;;;;;;;;;5052085;28;20619;-64
2023/07/12 14:07:43;;;;;;;4.57;4.37;;;;;;;;;;5052474;28;21198;-64
2023/07/12 14:10:14;;;;;;;5.07;4.80;;;;;;;;;;5064843;28;20672;-64
2023/07/12 14:12:44;;;;;;;5.60;5.20;;;;;;;;;;5070537;28;20621;-64
2023/07/12 14:15:17;;;;;;;5.00;4.80;;;;;;;;;;5069683;28;21360;-64
2023/07/12 14:17:45;;;;;;;5.00;4.60;;;;;;;;;;5067710;28;21182;-65
2023/07/12 14:20:13;;;;;;;5.60;5.10;;;;;;;;;;5071186;28;20638;-63
2023/07/12 14:22:42;;;;;;;5.77;5.27;;;;;;;;;;5062328;28;20617;-64
2023/07/12 14:25:15;;;;;;;5.60;5.23;;;;;;;;;;5052857;28;20681;-65
2023/07/12 14:27:45;;;;;;;5.80;5.30;;;;;;;;;;5060149;28;20617;-66
2023/07/12 14:30:14;;;;;;;5.73;4.80;;;;;;;;;;5071013;28;20658;-65
2023/07/12 14:32:44;;;;;;;5.17;4.87;;;;;;;;;;5070748;28;20629;-65
2023/07/12 14:35:16;;;;;;;4.63;4.40;;;;;;;;;;5069414;28;20609;-65
2023/07/12 14:37:46;;;;;;;9.60;4.87;;;;;;;;;;5070448;28;20606;-65
2023/07/12 14:40:15;;;;;;;5.77;4.30;;;;;;;;;;5067998;28;20982;-66
2023/07/12 14:42:44;;;;;;;6.47;4.90;;;;;;;;;;5051703;28;21044;-64
2023/07/12 14:45:24;;;;;;;5.13;4.70;;;;;;;;;;5051696;28;20619;-64
2023/07/12 14:47:53;;;;;;;4.50;4.23;;;;;;;;;;5050097;28;20582;-64
2023/07/12 14:50:25;;;;;;;4.43;4.20;;;;;;;;;;5050868;28;20658;-64
2023/07/12 14:52:54;;;;;;;4.50;4.10;;;;;;;;;;5050824;28;20587;-64